Time;durP1;ratioP1;P1;durP2;ratioP2;P2;SDS_P1;SDS_P2;PMS_P1;PMS_P2;Temp;Humidity;BMP_temperature;BMP_pressure;BME280_temperature;BME280_humidity;BME280_pressure;Samples;Min_cycle;Max_cycle;Signal;HPM_P1;HPM_P2
2024/04/13 00:00:22;;;;;;;12.07;8.65;;;;;;;17.11;77.87;100918.06;5483690;26;20005;-77
2024/04/13 00:02:47;;;;;;;13.60;8.90;;;;;;;16.63;80.24;100900.38;5486982;26;20026;-78
2024/04/13 00:05:13;;;;;;;13.55;8.15;;;;;;;16.38;81.25;100896.13;5487298;26;20004;-78
2024/04/13 00:07:38;;;;;;;12.05;7.90;;;;;;;16.07;82.51;100878.50;5487685;26;20598;-78
2024/04/13 00:10:04;;;;;;;11.80;8.23;;;;;;;16.54;80.01;100899.13;5480610;26;20071;-78
2024/04/13 00:12:33;;;;;;;9.50;7.93;;;;;;;16.14;82.70;100900.75;5450561;26;20019;-79
2024/04/13 00:14:58;;;;;;;14.05;8.55;;;;;;;15.77;83.41;100878.63;5450719;26;20007;-78
2024/04/13 00:17:24;;;;;;;12.35;8.27;;;;;;;15.97;81.92;100894.41;5450628;26;20027;-78
2024/04/13 00:19:50;;;;;;;11.98;8.20;;;;;;;15.37;84.85;100911.50;5451365;26;20009;-78
2024/04/13 00:22:17;;;;;;;12.73;8.73;;;;;;;14.63;89.67;100906.31;5485047;26;20034;-78
2024/04/13 00:24:43;;;;;;;8.85;7.38;;;;;;;14.32;92.21;100893.81;5486538;26;20005;-78
2024/04/13 00:27:09;;;;;;;9.23;7.20;;;;;;;14.21;93.15;100876.59;5486857;26;20008;-78
2024/04/13 00:29:34;;;;;;;11.73;7.90;;;;;;;14.50;93.14;100895.69;5486808;26;20010;-78
2024/04/13 00:32:00;;;;;;;11.95;8.20;;;;;;;15.23;89.95;100910.88;5483302;26;20427;-77
2024/04/13 00:34:25;;;;;;;12.45;9.05;;;;;;;15.49;87.22;100915.03;5486910;26;19998;-77
2024/04/13 00:36:50;;;;;;;13.32;9.40;;;;;;;15.45;87.85;100914.69;5486711;26;20009;-78
2024/04/13 00:39:17;;;;;;;15.57;9.38;;;;;;;15.11;89.39;100908.13;5486780;26;20508;-77
2024/04/13 00:41:42;;;;;;;11.85;8.85;;;;;;;14.96;88.42;100905.06;5483648;26;20002;-77
2024/04/13 00:44:08;;;;;;;17.65;10.38;;;;;;;14.73;90.42;100906.59;5486449;26;20012;-78
2024/04/13 00:46:33;;;;;;;32.22;12.25;;;;;;;14.71;91.96;100892.56;5484555;26;20013;-78
2024/04/13 00:49:00;;;;;;;21.20;9.85;;;;;;;14.94;92.32;100917.91;5485304;26;20016;-78
2024/04/13 00:51:29;;;;;;;15.05;9.23;;;;;;;14.90;92.29;100889.84;5485432;26;20005;-79
2024/04/13 00:53:55;;;;;;;16.33;9.15;;;;;;;14.90;93.18;100908.66;5486107;26;19998;-79
2024/04/13 00:56:21;;;;;;;13.40;8.25;;;;;;;14.65;96.16;100909.59;5486271;26;20005;-79
2024/04/13 00:58:48;;;;;;;13.70;9.07;;;;;;;14.99;93.00;100909.97;5486291;26;20037;-79
2024/04/13 01:01:15;;;;;;;16.02;8.55;;;;;;;15.04;91.75;100891.31;5485974;26;20006;-78
2024/04/13 01:03:43;;;;;;;11.60;8.47;;;;;;;15.01;92.48;100897.94;5486004;26;20435;-79
2024/04/13 01:06:11;;;;;;;11.48;7.97;;;;;;;14.90;93.65;100900.59;5485567;26;20341;-78
2024/04/13 01:08:37;;;;;;;12.15;8.55;;;;;;;14.97;92.94;100909.38;5485832;26;20016;-78
2024/04/13 01:11:03;;;;;;;12.70;8.68;;;;;;;14.88;94.07;100908.06;5483037;26;20013;-78
2024/04/13 01:13:29;;;;;;;12.63;9.10;;;;;;;14.90;94.70;100908.66;5486006;26;20006;-78
2024/04/13 01:15:55;;;;;;;12.60;9.45;;;;;;;14.92;94.71;100898.50;5486403;26;20743;-78
2024/04/13 01:18:20;;;;;;;15.23;9.50;;;;;;;14.95;93.28;100876.53;5486280;26;19998;-79
2024/04/13 01:20:46;;;;;;;14.93;9.82;;;;;;;15.07;93.13;100917.69;5471728;26;20331;-77
2024/04/13 01:23:14;;;;;;;14.93;10.32;;;;;;;14.86;95.19;100922.53;5449541;26;19998;-78
2024/04/13 01:25:43;;;;;;;13.20;10.27;;;;;;;15.12;93.41;100906.25;5449464;26;20581;-78
2024/04/13 01:28:12;;;;;;;14.52;10.27;;;;;;;15.05;93.08;100890.25;5449193;26;19999;-77
2024/04/13 01:30:39;;;;;;;13.98;10.10;;;;;;;15.00;92.75;100879.38;5456684;26;20323;-78
2024/04/13 01:33:05;;;;;;;17.55;10.15;;;;;;;14.97;93.24;100886.00;5485563;26;20014;-77
2024/04/13 01:35:30;;;;;;;16.42;11.38;;;;;;;14.85;92.63;100883.31;5485310;26;20017;-78
2024/04/13 01:37:56;;;;;;;13.50;10.73;;;;;;;14.82;92.05;100890.97;5485553;26;20051;-79
2024/04/13 01:40:22;;;;;;;13.90;11.20;;;;;;;14.72;94.11;100883.47;5481731;26;20013;-77
2024/04/13 01:42:48;;;;;;;13.25;10.50;;;;;;;14.29;98.16;100903.13;5448965;26;20022;-79
2024/04/13 01:45:14;;;;;;;15.43;12.85;;;;;;;14.16;99.96;100908.63;5449050;26;20336;-77
2024/04/13 01:47:39;;;;;;;26.02;19.42;;;;;;;14.45;94.55;100891.81;5448868;26;19999;-78
2024/04/13 01:50:05;;;;;;;29.85;23.20;;;;;;;14.72;94.13;100913.00;5449588;26;20007;-78
2024/04/13 01:52:31;;;;;;;33.08;24.38;;;;;;;14.75;93.32;100900.97;5483947;26;20001;-78
2024/04/13 01:54:57;;;;;;;36.53;26.48;;;;;;;14.47;95.04;100902.31;5485404;26;20002;-78
2024/04/13 01:57:22;;;;;;;25.58;19.17;;;;;;;14.00;99.30;100892.06;5465821;26;20070;-77
2024/04/13 01:59:48;;;;;;;35.42;20.95;;;;;;;13.33;100.00;100881.09;5449531;26;19995;-77
2024/04/13 02:02:13;;;;;;;23.45;15.95;;;;;;;13.15;100.00;100889.81;5488042;26;20002;-78
2024/04/13 02:04:39;;;;;;;22.13;15.65;;;;;;;13.22;100.00;100895.16;5489114;26;19994;-78
2024/04/13 02:07:05;;;;;;;21.67;15.48;;;;;;;13.29;100.00;100906.66;5487196;26;20005;-77
2024/04/13 02:09:31;;;;;;;23.08;15.43;;;;;;;13.14;100.00;100892.75;5488961;26;20009;-77
2024/04/13 02:11:57;;;;;;;22.67;14.57;;;;;;;13.57;99.22;100894.75;5487870;26;20038;-77
2024/04/13 02:14:22;;;;;;;26.83;17.27;;;;;;;13.63;98.01;100886.63;5488295;26;20006;-77
2024/04/13 02:16:50;;;;;;;24.20;18.08;;;;;;;13.67;99.01;100887.03;5488384;26;20026;-78
2024/04/13 02:19:15;;;;;;;24.70;17.85;;;;;;;13.76;97.57;100876.84;5488588;26;20318;-77
2024/04/13 02:21:41;;;;;;;26.45;16.33;;;;;;;13.40;100.00;100859.59;5484955;26;19994;-77
2024/04/13 02:24:07;;;;;;;22.75;16.30;;;;;;;13.35;100.00;100883.56;5488290;26;20001;-79
2024/04/13 02:26:32;;;;;;;21.02;13.98;;;;;;;13.20;100.00;100873.94;5488438;26;20006;-77
2024/04/13 02:28:58;;;;;;;20.15;13.27;;;;;;;13.75;99.70;100893.94;5488485;26;20334;-77
2024/04/13 02:31:24;;;;;;;19.15;12.63;;;;;;;13.24;100.00;100883.19;5470793;26;20009;-77
2024/04/13 02:33:50;;;;;;;17.55;12.45;;;;;;;12.89;100.00;100900.69;5452396;26;19999;-77
2024/04/13 02:36:15;;;;;;;15.38;11.98;;;;;;;12.74;100.00;100861.63;5451866;26;19995;-77
2024/04/13 02:38:41;;;;;;;15.70;10.05;;;;;;;12.95;100.00;100867.69;5451895;26;20006;-77
2024/04/13 02:41:08;;;;;;;15.10;10.30;;;;;;;13.02;100.00;100879.22;5451218;26;20002;-78
2024/04/13 02:43:35;;;;;;;14.57;10.27;;;;;;;13.51;100.00;100890.25;5450169;26;19999;-78
2024/04/13 02:46:07;;;;;;;16.73;10.82;;;;;;;13.49;100.00;100890.47;5451824;26;20046;-78
2024/04/13 02:48:33;;;;;;;14.52;10.88;;;;;;;13.60;100.00;100899.66;5451922;26;20028;-78
2024/04/13 02:50:59;;;;;;;20.65;11.13;;;;;;;13.77;100.00;100908.78;5451502;26;20003;-77
2024/04/13 02:53:24;;;;;;;16.73;10.68;;;;;;;13.53;100.00;100886.31;5451931;26;20003;-78
2024/04/13 02:55:50;;;;;;;14.02;10.00;;;;;;;13.52;100.00;100890.00;5450254;26;20340;-78
2024/04/13 02:58:16;;;;;;;18.05;10.75;;;;;;;13.46;100.00;100885.53;5451568;26;20017;-77
2024/04/13 03:00:54;;;;;;;15.25;10.88;;;;;;;13.44;100.00;100901.84;5449549;26;20361;-78
2024/04/13 03:03:20;;;;;;;14.45;10.70;;;;;;;13.70;100.00;100901.84;5451339;26;20013;-78
2024/04/13 03:05:45;;;;;;;16.13;10.65;;;;;;;13.77;100.00;100902.59;5451432;26;20002;-77
2024/04/13 03:08:11;;;;;;;15.88;10.90;;;;;;;14.13;98.08;100901.03;5451440;26;19999;-78
2024/04/13 03:10:37;;;;;;;15.30;10.90;;;;;;;13.96;98.08;100908.84;5453116;26;20723;-78
2024/04/13 03:13:03;;;;;;;16.98;10.35;;;;;;;13.91;96.79;100897.94;5451174;26;21039;-78
2024/04/13 03:15:28;;;;;;;17.50;10.98;;;;;;;13.81;97.89;100895.75;5451790;26;20003;-79
2024/04/13 03:17:53;;;;;;;15.85;11.05;;;;;;;13.83;97.87;100901.72;5451634;26;20003;-78
2024/04/13 03:20:19;;;;;;;19.08;12.07;;;;;;;13.35;100.00;100891.59;5451040;26;20354;-78
2024/04/13 03:22:44;;;;;;;19.55;12.88;;;;;;;13.19;100.00;100899.06;5484432;26;20006;-78
2024/04/13 03:25:10;;;;;;;23.55;13.73;;;;;;;12.81;100.00;100883.84;5487623;26;19998;-78
2024/04/13 03:27:35;;;;;;;19.08;11.75;;;;;;;12.57;100.00;100871.19;5487713;26;20636;-78
2024/04/13 03:30:01;;;;;;;14.57;11.07;;;;;;;12.56;100.00;100893.63;5487382;26;20075;-78
2024/04/13 03:32:27;;;;;;;17.45;11.95;;;;;;;13.15;100.00;100895.19;5462167;26;19995;-78
2024/04/13 03:34:52;;;;;;;20.70;14.07;;;;;;;13.34;100.00;100897.97;5449519;26;20100;-79
2024/04/13 03:37:17;;;;;;;21.30;13.57;;;;;;;12.92;100.00;100893.06;5449752;26;20002;-78
2024/04/13 03:39:43;;;;;;;17.27;11.50;;;;;;;12.55;100.00;100875.94;5451380;26;20436;-78
2024/04/13 03:42:09;;;;;;;19.55;12.15;;;;;;;12.64;100.00;100890.69;5453723;26;20072;-78
2024/04/13 03:44:34;;;;;;;17.60;12.48;;;;;;;12.88;100.00;100891.84;5451638;26;20007;-77
2024/04/13 03:47:00;;;;;;;17.52;12.32;;;;;;;12.73;100.00;100894.81;5450417;26;20447;-77
2024/04/13 03:49:25;;;;;;;19.95;13.70;;;;;;;12.63;100.00;100883.72;5452445;26;20530;-78
2024/04/13 03:51:51;;;;;;;24.60;14.95;;;;;;;12.79;100.00;100901.97;5452257;26;20009;-76
2024/04/13 03:54:16;;;;;;;24.10;15.80;;;;;;;12.55;100.00;100857.22;5451984;26;20052;-77
2024/04/13 03:56:42;;;;;;;26.15;14.35;;;;;;;12.78;100.00;100880.78;5452015;26;20071;-78
2024/04/13 03:59:07;;;;;;;25.92;16.05;;;;;;;12.91;100.00;100887.91;5452358;26;20003;-78
2024/04/13 04:01:34;;;;;;;19.60;14.38;;;;;;;12.89;100.00;100900.69;5461560;26;20012;-79
2024/04/13 04:04:00;;;;;;;19.63;12.00;;;;;;;12.38;100.00;100883.59;5488812;26;19998;-78
2024/04/13 04:06:25;;;;;;;18.00;10.90;;;;;;;12.37;100.00;100881.97;5488645;26;20038;-78
2024/04/13 04:08:51;;;;;;;14.85;9.65;;;;;;;12.13;100.00;100886.13;5492931;26;20002;-78
2024/04/13 04:11:16;;;;;;;12.18;9.32;;;;;;;12.56;100.00;100920.38;5492715;26;20005;-78
2024/04/13 04:13:41;;;;;;;18.42;10.38;;;;;;;12.02;100.00;100893.75;5493550;26;20008;-79
2024/04/13 04:16:07;;;;;;;14.10;9.73;;;;;;;12.01;100.00;100912.66;5493520;26;20008;-77
2024/04/13 04:18:32;;;;;;;16.70;9.20;;;;;;;11.97;100.00;100922.97;5491704;26;20011;-79
2024/04/13 04:20:58;;;;;;;16.95;9.75;;;;;;;11.95;100.00;100922.38;5493434;26;20010;-77
2024/04/13 04:23:23;;;;;;;14.63;9.88;;;;;;;12.11;100.00;100925.63;5481737;26;19998;-77
2024/04/13 04:25:49;;;;;;;16.50;9.95;;;;;;;12.08;100.00;100926.88;5492599;26;19998;-77
2024/04/13 04:28:14;;;;;;;20.80;10.70;;;;;;;12.19;100.00;100920.06;5492508;26;20431;-78
2024/04/13 04:30:40;;;;;;;17.85;11.43;;;;;;;12.46;100.00;100905.59;5490973;26;20002;-78
2024/04/13 04:33:05;;;;;;;14.30;11.23;;;;;;;12.77;100.00;100928.13;5459055;26;20526;-78
2024/04/13 04:35:30;;;;;;;22.77;11.95;;;;;;;12.75;100.00;100932.88;5452238;26;20015;-77
2024/04/13 04:37:56;;;;;;;22.95;12.45;;;;;;;12.71;100.00;100904.06;5449883;26;20346;-77
2024/04/13 04:40:22;;;;;;;18.38;12.32;;;;;;;13.09;100.00;100952.28;5451199;26;20015;-77
2024/04/13 04:42:48;;;;;;;20.45;11.77;;;;;;;12.88;100.00;100917.78;5453230;26;20332;-77
2024/04/13 04:45:13;;;;;;;17.67;12.07;;;;;;;13.19;100.00;100947.28;5451116;26;20018;-78
2024/04/13 04:47:38;;;;;;;20.23;12.20;;;;;;;13.50;100.00;100945.69;5450692;26;20018;-78
2024/04/13 04:50:04;;;;;;;18.48;11.13;;;;;;;12.98;100.00;100944.94;5450125;26;20079;-77
2024/04/13 04:52:30;;;;;;;18.15;10.82;;;;;;;13.07;100.00;100935.59;5469126;26;20078;-78
2024/04/13 04:54:59;;;;;;;18.77;11.38;;;;;;;13.36;100.00;100939.59;5486910;26;20008;-79
2024/04/13 04:57:25;;;;;;;21.45;13.10;;;;;;;13.23;100.00;100945.81;5485836;26;20002;-78
2024/04/13 04:59:50;;;;;;;21.83;14.07;;;;;;;13.33;100.00;100934.66;5486599;26;20448;-79
2024/04/13 05:02:16;;;;;;;17.95;12.88;;;;;;;13.40;100.00;100931.94;5485431;26;20740;-78
2024/04/13 05:04:41;;;;;;;18.75;11.70;;;;;;;12.76;100.00;100907.75;5486193;26;20002;-78
2024/04/13 05:07:07;;;;;;;20.92;12.50;;;;;;;12.45;100.00;100895.91;5486389;26;20022;-79
2024/04/13 05:09:32;;;;;;;24.77;19.25;;;;;;;12.68;100.00;100904.50;5484384;26;20034;-79
2024/04/13 05:11:57;;;;;;;27.15;22.05;;;;;;;13.24;100.00;100918.00;5476070;26;20070;-79
2024/04/13 05:14:23;;;;;;;29.80;23.63;;;;;;;13.40;100.00;100926.56;5449452;26;20017;-80
2024/04/13 05:16:48;;;;;;;29.38;22.88;;;;;;;13.36;100.00;100906.63;5458079;26;20397;-80
2024/04/13 05:19:14;;;;;;;28.08;21.13;;;;;;;12.88;100.00;100909.75;5458986;26;20002;-79
2024/04/13 05:21:39;;;;;;;25.00;18.58;;;;;;;12.95;100.00;100889.94;5479102;26;20002;-80
2024/04/13 05:24:05;;;;;;;23.60;17.20;;;;;;;12.84;100.00;100904.00;5449736;26;20443;-78
2024/04/13 05:26:31;;;;;;;26.33;21.65;;;;;;;12.61;100.00;100899.97;5449273;26;20015;-78
2024/04/13 05:28:56;;;;;;;29.25;21.77;;;;;;;12.69;100.00;100884.72;5476015;26;20002;-79
2024/04/13 05:31:22;;;;;;;22.40;18.77;;;;;;;13.03;100.00;100904.94;5485172;26;20360;-79
2024/04/13 05:33:48;;;;;;;26.08;20.20;;;;;;;13.38;100.00;100920.63;5450316;26;19999;-78
2024/04/13 05:36:13;;;;;;;26.42;20.55;;;;;;;13.69;100.00;100900.19;5487164;26;20348;-79
2024/04/13 05:38:39;;;;;;;24.10;19.55;;;;;;;13.83;100.00;100907.91;5488860;26;20358;-79
2024/04/13 05:41:04;;;;;;;17.67;15.77;;;;;;;13.50;100.00;100897.44;5487255;26;20024;-80
2024/04/13 05:43:31;;;;;;;20.13;15.48;;;;;;;13.85;100.00;100888.91;5477695;26;19999;-80
2024/04/13 05:45:57;;;;;;;18.25;15.18;;;;;;;14.11;100.00;100929.94;5472540;26;20359;-79
2024/04/13 05:48:23;;;;;;;17.20;13.70;;;;;;;13.87;100.00;100916.31;5471352;26;19994;-79
2024/04/13 05:50:53;;;;;;;18.75;13.68;;;;;;;13.71;100.00;100900.78;5467045;26;20104;-79
2024/04/13 05:53:19;;;;;;;16.02;12.25;;;;;;;13.80;100.00;100920.94;5478287;26;19994;-78
2024/04/13 05:55:44;;;;;;;17.42;12.60;;;;;;;13.98;100.00;100937.06;5475816;26;20002;-78
2024/04/13 05:58:10;;;;;;;17.42;13.15;;;;;;;14.37;100.00;100935.03;5476584;26;20082;-78
2024/04/13 06:00:35;;;;;;;16.25;14.05;;;;;;;14.61;100.00;100908.41;5471050;26;20010;-79
2024/04/13 06:03:02;;;;;;;18.77;13.48;;;;;;;14.42;100.00;100905.66;5475508;26;20092;-79
2024/04/13 06:05:27;;;;;;;18.80;13.50;;;;;;;15.32;100.00;100927.47;5488536;26;20009;-78
2024/04/13 06:07:52;;;;;;;144.70;81.53;;;;;;;16.11;100.00;100927.28;5488669;26;19998;-79
2024/04/13 06:10:18;;;;;;;31.73;20.33;;;;;;;16.39;100.00;100929.25;5486493;26;19998;-79
2024/04/13 06:12:43;;;;;;;18.55;13.38;;;;;;;16.50;100.00;100944.56;5469417;26;20009;-80
2024/04/13 06:15:09;;;;;;;154.43;77.75;;;;;;;16.24;100.00;100937.78;5452055;26;20320;-78
2024/04/13 06:17:35;;;;;;;20.73;14.85;;;;;;;16.02;100.00;100927.63;5450349;26;20506;-79
2024/04/13 06:20:01;;;;;;;17.25;13.88;;;;;;;15.86;100.00;100906.81;5455774;26;19990;-79
2024/04/13 06:22:26;;;;;;;19.33;12.82;;;;;;;16.04;100.00;100922.03;5485264;26;20008;-78
2024/04/13 06:24:52;;;;;;;19.25;14.52;;;;;;;16.21;100.00;100928.31;5488141;26;19994;-78
2024/04/13 06:27:18;;;;;;;16.17;12.98;;;;;;;16.12;100.00;100934.28;5488348;26;20687;-78
2024/04/13 06:29:50;;;;;;;19.65;12.95;;;;;;;16.04;100.00;100944.38;5488519;26;20045;-80
2024/04/13 06:32:16;;;;;;;14.65;12.40;;;;;;;15.70;100.00;100937.06;5486039;26;20372;-79
2024/04/13 06:34:42;;;;;;;16.33;11.98;;;;;;;15.25;100.00;100947.22;5486657;26;20005;-80
2024/04/13 06:37:07;;;;;;;16.05;12.90;;;;;;;14.89;100.00;100931.16;5484055;26;20365;-79
2024/04/13 06:39:33;;;;;;;18.65;12.48;;;;;;;14.85;100.00;100926.28;5487786;26;20389;-79
2024/04/13 06:41:58;;;;;;;18.05;12.40;;;;;;;14.79;100.00;100916.44;5482649;26;20031;-80
2024/04/13 06:44:23;;;;;;;17.33;12.43;;;;;;;15.03;100.00;100940.69;5488089;26;20026;-79
2024/04/13 06:46:51;;;;;;;21.63;14.27;;;;;;;15.24;100.00;100947.44;5486853;26;20009;-79
2024/04/13 06:49:19;;;;;;;16.70;13.45;;;;;;;15.07;100.00;100901.59;5487230;26;19994;-79
2024/04/13 06:51:45;;;;;;;15.25;12.30;;;;;;;15.61;100.00;100937.38;5487622;26;20500;-81
2024/04/13 06:54:10;;;;;;;18.08;13.60;;;;;;;15.75;100.00;100950.63;5485414;26;19994;-80
2024/04/13 06:56:36;;;;;;;17.50;12.90;;;;;;;15.59;100.00;100920.66;5487734;26;20026;-79
2024/04/13 06:59:02;;;;;;;18.85;13.95;;;;;;;16.07;100.00;100943.06;5487033;26;19994;-79
2024/04/13 07:01:28;;;;;;;16.52;13.70;;;;;;;16.31;100.00;100943.88;5487611;26;20070;-79
2024/04/13 07:03:56;;;;;;;16.25;13.40;;;;;;;16.24;100.00;100932.41;5486703;26;20038;-79
2024/04/13 07:06:22;;;;;;;17.85;14.10;;;;;;;16.67;100.00;100941.94;5487652;26;20008;-79
2024/04/13 07:08:48;;;;;;;16.20;12.82;;;;;;;16.41;100.00;100916.38;5479305;26;19998;-79
2024/04/13 07:11:14;;;;;;;15.07;12.90;;;;;;;16.56;100.00;100924.75;5487631;26;19998;-78
2024/04/13 07:13:40;;;;;;;17.35;13.48;;;;;;;17.11;100.00;100942.31;5484040;26;20014;-79
2024/04/13 07:16:06;;;;;;;18.90;13.50;;;;;;;17.15;100.00;100930.00;5487819;26;20075;-78
2024/04/13 07:18:32;;;;;;;16.73;14.35;;;;;;;17.41;100.00;100933.16;5477820;26;20013;-79
2024/04/13 07:20:58;;;;;;;21.10;16.60;;;;;;;17.37;100.00;100919.34;5486964;26;20443;-78
2024/04/13 07:23:23;;;;;;;20.48;15.20;;;;;;;17.37;100.00;100932.81;5464160;26;20044;-78
2024/04/13 07:25:57;;;;;;;19.38;14.10;;;;;;;17.71;100.00;100934.72;5474936;26;20064;-79
2024/04/13 07:28:22;;;;;;;18.27;14.05;;;;;;;17.94;100.00;100921.09;5451082;26;19995;-80
2024/04/13 07:30:47;;;;;;;19.35;14.30;;;;;;;18.28;100.00;100923.72;5450783;26;19998;-80
2024/04/13 07:33:13;;;;;;;19.27;14.43;;;;;;;18.58;100.00;100927.91;5449732;26;19994;-80
2024/04/13 07:35:38;;;;;;;18.13;14.50;;;;;;;18.74;100.00;100924.34;5450791;26;19994;-78
2024/04/13 07:38:04;;;;;;;14.40;12.48;;;;;;;19.07;100.00;100936.88;5449553;26;19995;-79
2024/04/13 07:40:29;;;;;;;17.38;13.55;;;;;;;19.08;100.00;100926.88;5450358;26;20347;-80
2024/04/13 07:42:55;;;;;;;15.25;13.10;;;;;;;19.19;100.00;100917.81;5461828;26;19994;-80
2024/04/13 07:45:20;;;;;;;16.25;13.23;;;;;;;19.24;100.00;100928.66;5484991;26;20006;-79
2024/04/13 07:47:45;;;;;;;16.80;13.63;;;;;;;19.47;100.00;100903.22;5482269;26;19998;-79
2024/04/13 07:50:11;;;;;;;17.83;13.35;;;;;;;19.89;100.00;100926.00;5483704;26;20337;-79
2024/04/13 07:52:36;;;;;;;18.13;13.70;;;;;;;19.79;100.00;100912.41;5476772;26;19999;-80
2024/04/13 07:55:03;;;;;;;19.75;14.52;;;;;;;19.99;100.00;100909.03;5447516;26;20067;-80
2024/04/13 07:57:28;;;;;;;19.65;14.63;;;;;;;19.42;100.00;100921.28;5447418;26;20323;-80
2024/04/13 07:59:54;;;;;;;17.48;13.88;;;;;;;19.47;100.00;100894.25;5448656;26;20009;-80
2024/04/13 08:02:19;;;;;;;18.73;14.00;;;;;;;20.05;100.00;100919.63;5454155;26;20476;-79
2024/04/13 08:04:45;;;;;;;19.02;14.27;;;;;;;20.55;100.00;100922.03;5486825;26;19994;-80
2024/04/13 08:07:10;;;;;;;16.83;13.32;;;;;;;20.69;100.00;100898.81;5485312;26;20555;-80
2024/04/13 08:09:41;;;;;;;14.80;13.15;;;;;;;21.04;100.00;100924.41;5486758;26;20010;-80
2024/04/13 08:12:10;;;;;;;16.58;12.82;;;;;;;20.97;100.00;100921.13;5486987;26;20006;-80
2024/04/13 08:14:36;;;;;;;19.00;13.18;;;;;;;21.22;100.00;100902.19;5486186;26;20416;-80
2024/04/13 08:17:03;;;;;;;16.88;12.82;;;;;;;21.18;100.00;100884.81;5486719;26;19998;-80
2024/04/13 08:19:28;;;;;;;15.95;13.80;;;;;;;21.19;100.00;100899.22;5486789;26;20006;-80
2024/04/13 08:21:53;;;;;;;18.05;13.00;;;;;;;21.35;100.00;100886.47;5486813;26;20074;-79
2024/04/13 08:24:19;;;;;;;17.15;12.70;;;;;;;21.20;100.00;100901.63;5481852;26;20002;-81
2024/04/13 08:26:45;;;;;;;19.38;12.48;;;;;;;21.49;98.24;100881.34;5486751;26;19998;-80
2024/04/13 08:29:11;;;;;;;16.67;13.07;;;;;;;21.76;96.73;100909.03;5486346;26;20431;-80
2024/04/13 08:31:37;;;;;;;16.65;13.00;;;;;;;22.07;100.00;100881.81;5486758;26;20463;-79
2024/04/13 08:34:03;;;;;;;16.35;12.43;;;;;;;22.71;98.56;100901.16;5461219;26;20003;-80
2024/04/13 08:36:28;;;;;;;16.65;12.13;;;;;;;22.65;89.77;100889.50;5449956;26;20013;-80
2024/04/13 08:38:55;;;;;;;16.10;12.15;;;;;;;22.89;89.34;100886.91;5450074;26;19995;-80
2024/04/13 08:42:06;;;;;;;16.20;12.15;;;;;;;23.00;91.00;100882.22;5449951;26;20011;-80
2024/04/13 08:44:31;;;;;;;14.75;11.63;;;;;;;23.29;87.62;100887.75;5483241;26;19998;-80
2024/04/13 08:46:59;;;;;;;16.65;11.38;;;;;;;23.49;90.03;100881.31;5486109;26;20012;-80
2024/04/13 08:49:27;;;;;;;11.68;10.43;;;;;;;23.41;79.42;100854.72;5486368;26;20331;-79
2024/04/13 08:51:52;;;;;;;17.05;11.57;;;;;;;23.62;86.50;100867.06;5486078;26;20009;-80
2024/04/13 08:54:18;;;;;;;13.77;10.25;;;;;;;23.86;77.02;100864.41;5459156;26;20003;-80
2024/04/13 08:56:45;;;;;;;12.55;10.32;;;;;;;24.09;79.85;100852.97;5449753;26;20006;-80
2024/04/13 08:59:11;;;;;;;18.65;11.43;;;;;;;24.01;79.49;100863.41;5449468;26;20007;-80
2024/04/13 09:01:47;;;;;;;15.40;10.52;;;;;;;24.58;79.52;100858.13;5449651;26;20002;-80
2024/04/13 09:04:12;;;;;;;14.88;10.65;;;;;;;24.43;77.17;100853.63;5476882;26;20034;-80
2024/04/13 09:06:39;;;;;;;13.15;10.48;;;;;;;24.60;72.69;100874.16;5485860;26;19998;-80
2024/04/13 09:09:08;;;;;;;11.93;9.70;;;;;;;24.19;74.56;100847.41;5485168;26;20013;-80
2024/04/13 09:11:37;;;;;;;14.57;9.98;;;;;;;24.78;77.54;100853.47;5485875;26;20266;-80
2024/04/13 09:14:07;;;;;;;11.95;9.82;;;;;;;25.04;68.85;100862.09;5463594;26;20003;-81
2024/04/13 09:16:33;;;;;;;14.85;10.48;;;;;;;24.88;69.96;100856.03;5449751;26;20007;-80
2024/04/13 09:19:00;;;;;;;13.77;9.73;;;;;;;25.22;69.36;100857.75;5449648;26;20003;-80
2024/04/13 09:21:27;;;;;;;13.10;9.27;;;;;;;25.50;65.98;100847.72;5447429;26;20003;-81
2024/04/13 09:23:55;;;;;;;12.70;9.57;;;;;;;24.73;56.17;100848.09;5447411;26;20003;-80
2024/04/13 09:26:23;;;;;;;11.90;9.20;;;;;;;25.04;56.44;100835.59;5449196;26;20236;-80
2024/04/13 09:28:49;;;;;;;10.63;9.18;;;;;;;25.63;55.61;100846.91;5449322;26;20031;-80
2024/04/13 09:31:16;;;;;;;11.02;8.88;;;;;;;26.04;55.21;100829.75;5449460;26;20006;-80
2024/04/13 09:33:52;;;;;;;12.10;8.60;;;;;;;26.18;53.46;100845.38;5464012;26;20442;-80
2024/04/13 09:36:26;;;;;;;11.25;8.70;;;;;;;26.00;51.55;100839.69;5485610;26;20006;-79
2024/04/13 09:38:55;;;;;;;11.15;7.55;;;;;;;26.16;48.57;100823.78;5485828;26;19998;-80
2024/04/13 09:41:21;;;;;;;14.88;8.48;;;;;;;25.85;51.57;100831.78;5485234;26;20038;-80
2024/04/13 09:43:47;;;;;;;11.70;8.82;;;;;;;25.50;51.81;100814.94;5484469;26;19999;-80
2024/04/13 09:46:13;;;;;;;10.32;7.70;;;;;;;25.88;54.71;100803.84;5485547;26;20450;-80
2024/04/13 09:48:38;;;;;;;12.48;7.82;;;;;;;25.83;54.32;100809.41;5485067;26;20038;-80
2024/04/13 09:51:04;;;;;;;12.68;8.02;;;;;;;26.12;52.42;100802.84;5485213;26;19998;-81
2024/04/13 09:53:31;;;;;;;12.10;7.95;;;;;;;26.51;47.84;100806.94;5484567;26;20335;-80
2024/04/13 09:55:57;;;;;;;10.80;7.93;;;;;;;26.29;49.40;100803.00;5485466;26;20002;-80
2024/04/13 09:58:23;;;;;;;13.05;7.85;;;;;;;26.33;51.23;100798.53;5485223;26;20013;-80
2024/04/13 10:00:50;;;;;;;13.77;8.52;;;;;;;26.43;48.08;100817.47;5485388;26;20026;-80
2024/04/13 10:03:16;;;;;;;10.02;7.85;;;;;;;26.23;47.55;100809.69;5484750;26;20010;-81
2024/04/13 10:05:45;;;;;;;11.30;7.65;;;;;;;26.40;50.02;100807.16;5485516;26;19998;-80
2024/04/13 10:08:11;;;;;;;11.68;7.75;;;;;;;26.50;45.55;100811.59;5485430;26;20039;-80
2024/04/13 10:10:44;;;;;;;11.00;7.38;;;;;;;26.29;48.11;100803.00;5483174;26;20009;-80
2024/04/13 10:13:12;;;;;;;10.65;7.40;;;;;;;26.46;48.32;100797.72;5478413;26;20010;-80
2024/04/13 10:15:38;;;;;;;9.48;7.53;;;;;;;26.97;46.44;100794.91;5448607;26;20003;-80
2024/04/13 10:18:05;;;;;;;10.30;7.50;;;;;;;26.81;47.82;100797.22;5446732;26;20373;-81
2024/04/13 10:20:30;;;;;;;11.85;7.65;;;;;;;26.21;48.01;100784.59;5448337;26;20002;-80
2024/04/13 10:23:03;;;;;;;9.45;7.53;;;;;;;26.96;45.93;100793.31;5451792;26;20473;-80
2024/04/13 10:25:30;;;;;;;14.75;8.02;;;;;;;27.27;45.71;100792.56;5452147;26;19999;-81
2024/04/13 10:28:09;;;;;;;11.33;7.77;;;;;;;27.06;45.19;100790.31;5451875;26;20018;-80
2024/04/13 10:30:54;;;;;;;12.63;8.35;;;;;;;27.57;47.31;100785.47;5451982;26;20284;-80
2024/04/13 10:33:25;;;;;;;11.88;7.50;;;;;;;27.47;45.34;100772.84;5451580;26;19999;-80
2024/04/13 10:36:09;;;;;;;13.75;7.57;;;;;;;27.77;43.39;100767.66;5451965;26;19999;-77
2024/04/13 10:38:36;;;;;;;13.02;8.95;;;;;;;28.14;44.16;100770.97;5452232;26;20009;-77
2024/04/13 10:41:02;;;;;;;12.10;7.63;;;;;;;28.77;41.99;100780.56;5451651;26;20111;-78
2024/04/13 10:43:29;;;;;;;14.17;8.03;;;;;;;28.29;42.21;100770.50;5459412;26;20554;-79
2024/04/13 10:46:01;;;;;;;10.93;7.65;;;;;;;28.71;42.94;100773.63;5488103;26;20016;-78
2024/04/13 10:48:31;;;;;;;11.35;7.20;;;;;;;28.76;39.84;100761.66;5488269;26;19998;-78
2024/04/13 10:50:57;;;;;;;12.18;7.60;;;;;;;28.91;40.77;100755.66;5488152;26;20002;-79
2024/04/13 10:53:25;;;;;;;13.63;7.95;;;;;;;28.47;41.28;100749.38;5484380;26;20022;-79
2024/04/13 10:55:51;;;;;;;14.00;7.50;;;;;;;28.74;41.34;100729.03;5449754;26;20104;-79
2024/04/13 10:58:16;;;;;;;12.82;7.35;;;;;;;28.66;41.18;100738.09;5451647;26;20010;-79
2024/04/13 11:00:46;;;;;;;13.40;7.35;;;;;;;28.58;38.93;100727.94;5451586;26;20100;-79
2024/04/13 11:03:12;;;;;;;12.63;7.18;;;;;;;29.68;37.79;100754.94;5453562;26;20003;-78